Time;durP1;ratioP1;P1;durP2;ratioP2;P2;SDS_P1;SDS_P2;PMS_P1;PMS_P2;Temp;Humidity;BMP_temperature;BMP_pressure;BME280_temperature;BME280_humidity;BME280_pressure;Samples;Min_cycle;Max_cycle;Signal;HPM_P1;HPM_P2
2023/10/24 00:02:52;;;;;;;12.47;7.77;;;;;;;9.93;100.00;97182.59;6253741;28;20232;-55
2023/10/24 00:05:55;;;;;;;10.73;7.50;;;;;;;9.97;100.00;97177.59;6249817;28;20242;-53
2023/10/24 00:08:57;;;;;;;17.23;7.70;;;;;;;10.02;100.00;97186.44;6253445;28;20249;-54
2023/10/24 00:11:59;;;;;;;9.53;6.60;;;;;;;10.06;100.00;97179.56;6252819;28;20258;-54
2023/10/24 00:15:02;;;;;;;9.77;6.27;;;;;;;10.08;100.00;97177.44;6253099;28;20241;-55
2023/10/24 00:18:04;;;;;;;6.77;5.53;;;;;;;10.12;100.00;97176.94;6252651;28;20694;-54
2023/10/24 00:21:06;;;;;;;10.23;5.97;;;;;;;10.15;100.00;97174.59;6252826;28;20210;-55
2023/10/24 00:24:09;;;;;;;8.83;5.73;;;;;;;10.17;100.00;97175.13;6252354;28;20583;-53
2023/10/24 00:27:12;;;;;;;10.00;6.70;;;;;;;10.17;100.00;97169.00;6251842;28;20261;-55
2023/10/24 00:30:14;;;;;;;8.17;6.83;;;;;;;10.22;100.00;97174.38;6248722;28;20715;-55
2023/10/24 00:33:16;;;;;;;16.70;9.43;;;;;;;10.25;100.00;97157.94;6235759;28;20220;-54
2023/10/24 00:36:19;;;;;;;16.37;10.93;;;;;;;10.28;100.00;97146.78;6232348;28;20217;-56
2023/10/24 00:39:21;;;;;;;16.53;9.93;;;;;;;10.30;100.00;97153.47;6234967;28;20242;-55
2023/10/24 00:42:24;;;;;;;13.80;10.47;;;;;;;10.33;100.00;97162.78;6252669;28;20237;-55
2023/10/24 00:45:26;;;;;;;13.87;10.70;;;;;;;10.36;100.00;97172.94;6243184;28;20234;-54
2023/10/24 00:48:30;;;;;;;9.93;7.83;;;;;;;10.38;100.00;97175.34;6252635;28;20250;-55
2023/10/24 00:51:32;;;;;;;9.00;6.63;;;;;;;10.36;100.00;97170.28;6252706;28;20245;-56
2023/10/24 00:54:35;;;;;;;8.90;7.53;;;;;;;10.36;100.00;97180.13;6215213;28;20223;-55
2023/10/24 00:57:38;;;;;;;7.53;6.27;;;;;;;10.28;100.00;97171.53;6252224;28;20246;-54
2023/10/24 01:00:42;;;;;;;13.83;8.50;;;;;;;10.36;100.00;97185.47;6252720;28;20239;-55
2023/10/24 01:03:46;;;;;;;14.30;9.23;;;;;;;10.36;100.00;97188.13;6252752;28;20268;-55
2023/10/24 01:06:49;;;;;;;15.20;9.37;;;;;;;10.36;100.00;97183.59;6252849;28;20231;-55
2023/10/24 01:09:51;;;;;;;17.73;10.63;;;;;;;10.38;100.00;97183.34;6233088;28;20357;-54
2023/10/24 01:12:53;;;;;;;14.17;8.87;;;;;;;10.40;100.00;97190.03;6252433;28;20222;-54
2023/10/24 01:15:56;;;;;;;16.87;9.73;;;;;;;10.43;100.00;97202.03;6252707;28;20231;-54
2023/10/24 01:18:59;;;;;;;12.53;9.03;;;;;;;10.45;100.00;97189.28;6237010;28;20256;-55
2023/10/24 01:22:01;;;;;;;23.47;9.93;;;;;;;10.45;100.00;97173.31;6238148;28;20226;-54
2023/10/24 01:25:12;;;;;;;19.50;10.63;;;;;;;10.45;100.00;97173.31;6247834;28;20238;-54
2023/10/24 01:28:14;;;;;;;21.33;13.17;;;;;;;10.43;100.00;97170.06;6260784;28;20226;-55
2023/10/24 01:31:17;;;;;;;24.90;14.27;;;;;;;10.40;100.00;97151.94;6260276;28;20233;-55
2023/10/24 01:34:19;;;;;;;24.67;14.37;;;;;;;10.38;100.00;97138.06;6259685;28;20238;-56
2023/10/24 01:37:21;;;;;;;27.67;15.10;;;;;;;10.34;100.00;97132.44;6241813;28;20265;-54
2023/10/24 01:40:24;;;;;;;21.90;14.17;;;;;;;10.35;100.00;97122.63;6246896;28;20229;-55
2023/10/24 01:43:27;;;;;;;24.77;14.00;;;;;;;10.35;100.00;97127.94;6257314;28;20230;-56
2023/10/24 01:46:30;;;;;;;19.10;11.93;;;;;;;10.35;100.00;97125.28;6259391;28;20246;-55
2023/10/24 01:49:32;;;;;;;19.70;12.20;;;;;;;10.35;100.00;97126.09;6257381;28;20277;-55
2023/10/24 01:52:35;;;;;;;19.07;11.63;;;;;;;10.35;100.00;97142.06;6242637;28;20227;-55
2023/10/24 01:55:38;;;;;;;17.93;11.40;;;;;;;10.38;100.00;97148.72;6256618;28;20257;-54
2023/10/24 01:58:41;;;;;;;22.23;14.90;;;;;;;10.38;100.00;97138.88;6259677;28;20234;-55
2023/10/24 02:01:43;;;;;;;17.30;12.23;;;;;;;10.39;100.00;97135.16;6239443;28;20246;-55
2023/10/24 02:04:46;;;;;;;21.47;13.50;;;;;;;10.42;100.00;97137.31;6260456;28;20307;-55
2023/10/24 02:07:48;;;;;;;19.83;12.13;;;;;;;10.43;100.00;97140.78;6257125;28;20240;-55
2023/10/24 02:10:51;;;;;;;19.60;13.13;;;;;;;10.46;100.00;97157.06;6258034;28;20266;-55
2023/10/24 02:13:53;;;;;;;17.40;12.27;;;;;;;10.47;100.00;97155.19;6235877;28;20241;-54
2023/10/24 02:16:55;;;;;;;23.30;14.67;;;;;;;10.48;100.00;97157.59;6237217;28;20300;-55
2023/10/24 02:19:58;;;;;;;21.97;15.17;;;;;;;10.49;100.00;97158.41;6239249;28;20231;-55
2023/10/24 02:23:01;;;;;;;18.50;12.73;;;;;;;10.49;100.00;97148.56;6241532;28;20560;-54
2023/10/24 02:26:03;;;;;;;22.73;14.93;;;;;;;10.50;100.00;97146.72;6256432;28;20225;-54
2023/10/24 02:29:05;;;;;;;21.37;15.33;;;;;;;10.51;100.00;97135.78;6259425;28;20235;-55
2023/10/24 02:32:08;;;;;;;22.47;16.10;;;;;;;10.43;100.00;97114.16;6259781;28;20325;-54
2023/10/24 02:35:11;;;;;;;17.30;13.13;;;;;;;10.49;100.00;97113.13;6223027;28;20234;-54
2023/10/24 02:38:14;;;;;;;14.80;11.03;;;;;;;10.60;100.00;97117.50;6251952;28;20226;-55
2023/10/24 02:41:16;;;;;;;13.90;10.17;;;;;;;10.63;100.00;97118.81;6238183;28;20328;-55
2023/10/24 02:44:20;;;;;;;20.57;14.10;;;;;;;10.63;100.00;97114.28;6251165;28;20701;-55
2023/10/24 02:47:22;;;;;;;15.57;11.70;;;;;;;10.64;100.00;97099.13;6254849;28;20227;-54
2023/10/24 02:50:25;;;;;;;18.40;13.80;;;;;;;10.62;100.00;97098.59;6254525;28;20741;-55
2023/10/24 02:53:27;;;;;;;15.97;12.30;;;;;;;10.62;100.00;97104.72;6255207;28;20238;-54
2023/10/24 02:56:29;;;;;;;18.03;12.90;;;;;;;10.64;100.00;97112.44;6233687;28;20230;-55
2023/10/24 02:59:32;;;;;;;18.57;12.77;;;;;;;10.65;100.00;97120.19;6253777;28;20227;-55
2023/10/24 03:02:34;;;;;;;15.63;11.63;;;;;;;10.66;100.00;97124.44;6234162;28;20629;-55
2023/10/24 03:05:36;;;;;;;17.23;12.23;;;;;;;10.59;100.00;97119.34;6251209;28;20226;-55
2023/10/24 03:08:39;;;;;;;12.13;9.50;;;;;;;10.68;100.00;97140.16;6255216;28;20235;-55
2023/10/24 03:11:41;;;;;;;11.07;9.27;;;;;;;10.70;100.00;97159.38;6234244;28;20249;-55
2023/10/24 03:14:43;;;;;;;12.27;10.07;;;;;;;10.71;100.00;97167.13;6250958;28;20276;-56
2023/10/24 03:17:46;;;;;;;23.60;15.47;;;;;;;10.69;100.00;97161.25;6237372;28;20238;-56
2023/10/24 03:20:48;;;;;;;21.30;13.80;;;;;;;10.70;100.00;97162.84;6254478;28;20780;-55
2023/10/24 03:23:50;;;;;;;16.83;12.70;;;;;;;10.70;100.00;97164.72;6254564;28;20238;-55
2023/10/24 03:26:53;;;;;;;15.63;11.90;;;;;;;10.70;100.00;97164.72;6254813;28;20737;-54
2023/10/24 03:29:59;;;;;;;16.90;13.37;;;;;;;10.51;100.00;97142.97;6228306;28;20322;-53
2023/10/24 03:33:02;;;;;;;16.77;12.30;;;;;;;10.59;100.00;97161.97;6240270;28;20837;-54
2023/10/24 03:36:11;;;;;;;13.40;11.53;;;;;;;10.63;100.00;97185.41;6211566;28;20262;-55
2023/10/24 03:39:13;;;;;;;10.83;9.73;;;;;;;10.62;100.00;97178.50;6226199;28;20295;-54
2023/10/24 03:42:16;;;;;;;15.07;11.63;;;;;;;10.61;100.00;97167.03;6230161;28;20216;-56
2023/10/24 03:45:18;;;;;;;12.73;10.70;;;;;;;10.53;100.00;97154.97;6230674;28;20264;-55
2023/10/24 03:48:20;;;;;;;11.77;9.97;;;;;;;10.52;100.00;97164.03;6224076;28;25398;-55
2023/10/24 03:51:25;;;;;;;12.27;9.60;;;;;;;10.53;100.00;97167.50;6229269;28;20604;-55
2023/10/24 03:54:33;;;;;;;10.40;9.30;;;;;;;10.50;100.00;97163.50;6229746;28;20695;-55
2023/10/24 03:57:35;;;;;;;9.73;7.83;;;;;;;10.49;100.00;97156.56;6229269;28;20238;-55
2023/10/24 04:00:37;;;;;;;11.63;9.40;;;;;;;10.45;100.00;97152.78;6227373;28;20228;-55
2023/10/24 04:03:40;;;;;;;11.10;10.00;;;;;;;10.38;100.00;97143.41;6228365;28;20322;-55
2023/10/24 04:06:43;;;;;;;10.87;9.23;;;;;;;10.36;100.00;97148.19;6229486;28;20923;-55
2023/10/24 04:09:45;;;;;;;9.63;8.13;;;;;;;10.42;100.00;97161.28;6228499;28;20227;-55
2023/10/24 04:12:47;;;;;;;11.10;10.00;;;;;;;10.38;100.00;97148.72;6226522;28;20578;-55
2023/10/24 04:15:56;;;;;;;10.60;8.57;;;;;;;10.41;100.00;97134.91;6229977;28;20634;-55
2023/10/24 04:18:59;;;;;;;10.63;8.83;;;;;;;10.40;100.00;97139.44;6227827;28;20955;-55
2023/10/24 04:22:02;;;;;;;11.57;10.38;;;;;;;10.61;100.00;97148.38;6227858;28;20995;-55
2023/10/24 04:25:05;;;;;;;11.63;10.17;;;;;;;10.51;100.00;97170.41;6224160;28;20607;-55
2023/10/24 04:28:07;;;;;;;10.57;9.43;;;;;;;10.49;100.00;97169.88;6229782;28;20639;-55
2023/10/24 04:31:09;;;;;;;9.67;8.23;;;;;;;10.35;100.00;97150.06;6228265;28;20267;-55
2023/10/24 04:34:12;;;;;;;8.40;7.53;;;;;;;10.31;100.00;97131.09;6228632;28;20330;-55
2023/10/24 04:37:14;;;;;;;8.40;7.50;;;;;;;10.47;100.00;97150.66;6226868;28;20337;-54
2023/10/24 04:40:17;;;;;;;9.40;8.33;;;;;;;10.51;100.00;97154.44;6228402;28;20235;-54
2023/10/24 04:43:19;;;;;;;9.43;8.33;;;;;;;10.49;100.00;97153.91;6225112;28;20255;-55
2023/10/24 04:46:21;;;;;;;9.70;7.97;;;;;;;10.50;100.00;97158.16;6228710;28;20235;-55
2023/10/24 04:49:24;;;;;;;9.93;8.87;;;;;;;10.51;100.00;97153.63;6227163;28;20860;-55
2023/10/24 04:52:26;;;;;;;11.37;9.60;;;;;;;10.51;100.00;97153.63;6228442;28;20242;-55
2023/10/24 04:55:29;;;;;;;10.40;8.90;;;;;;;10.52;100.00;97153.38;6226994;28;20774;-54
2023/10/24 04:58:31;;;;;;;13.17;9.33;;;;;;;10.52;100.00;97156.03;6228496;28;20235;-55
2023/10/24 05:01:37;;;;;;;10.50;8.07;;;;;;;10.48;100.00;97138.97;6228518;28;20480;-55
2023/10/24 05:04:39;;;;;;;12.83;10.07;;;;;;;10.53;100.00;97139.00;6227419;28;20281;-55
2023/10/24 05:07:42;;;;;;;14.07;11.07;;;;;;;10.54;100.00;97129.97;6223754;28;20235;-54
2023/10/24 05:10:47;;;;;;;15.47;10.47;;;;;;;10.54;100.00;97113.16;6225868;28;20566;-55
2023/10/24 05:13:49;;;;;;;13.77;10.57;;;;;;;10.40;100.00;97091.50;6226618;28;20860;-54
2023/10/24 05:16:52;;;;;;;10.07;8.10;;;;;;;10.57;100.00;97123.31;6226734;28;20233;-55
2023/10/24 05:19:54;;;;;;;15.30;12.00;;;;;;;10.58;100.00;97130.25;6227698;28;20257;-53
2023/10/24 05:22:56;;;;;;;18.67;13.83;;;;;;;10.61;100.00;97110.31;6227178;28;20231;-53
2023/10/24 05:25:59;;;;;;;13.27;10.37;;;;;;;10.64;100.00;97115.94;6224998;28;20745;-54
2023/10/24 05:29:01;;;;;;;14.00;11.30;;;;;;;10.64;100.00;97107.09;6224955;28;20235;-55
2023/10/24 05:32:04;;;;;;;13.77;10.07;;;;;;;10.66;100.00;97097.00;6228383;28;20234;-54
2023/10/24 05:35:06;;;;;;;14.60;11.53;;;;;;;10.51;100.00;97098.50;6227411;28;20316;-53
2023/10/24 05:38:09;;;;;;;14.27;11.37;;;;;;;10.60;100.00;97125.47;6226551;28;20699;-55
2023/10/24 05:41:11;;;;;;;15.33;11.87;;;;;;;10.65;100.00;97141.50;6227685;28;20227;-55
2023/10/24 05:44:17;;;;;;;11.13;8.93;;;;;;;10.65;100.00;97140.69;6227578;28;20317;-55
2023/10/24 05:47:19;;;;;;;13.20;10.03;;;;;;;10.68;100.00;97125.00;6227671;28;20271;-54
2023/10/24 05:50:21;;;;;;;14.03;11.30;;;;;;;10.70;100.00;97124.75;6241319;28;20243;-55
2023/10/24 05:53:24;;;;;;;15.10;10.67;;;;;;;10.69;100.00;97125.78;6224403;28;20312;-54
2023/10/24 05:56:26;;;;;;;12.43;9.77;;;;;;;10.69;100.00;97123.94;6226750;28;20286;-53
2023/10/24 05:59:29;;;;;;;16.03;12.03;;;;;;;10.74;100.00;97129.31;6226760;28;20251;-55
2023/10/24 06:02:31;;;;;;;12.53;10.43;;;;;;;10.76;100.00;97139.72;6223198;28;20286;-53
2023/10/24 06:05:34;;;;;;;14.70;10.97;;;;;;;10.77;100.00;97149.31;6227247;28;20599;-53
2023/10/24 06:08:36;;;;;;;25.70;18.87;;;;;;;10.79;100.00;97140.00;6226786;28;20236;-55
2023/10/24 06:11:39;;;;;;;19.30;13.90;;;;;;;10.80;100.00;97138.94;6229617;28;20286;-55
2023/10/24 06:14:41;;;;;;;18.53;13.03;;;;;;;10.80;100.00;97128.28;6230088;28;20228;-55
2023/10/24 06:17:44;;;;;;;25.23;15.67;;;;;;;10.84;100.00;97123.25;6224923;28;20608;-55
2023/10/24 06:20:47;;;;;;;53.57;25.83;;;;;;;10.85;100.00;97122.97;6231335;28;20238;-54
2023/10/24 06:23:49;;;;;;;64.50;26.70;;;;;;;10.82;100.00;97112.84;6232762;28;20261;-55
2023/10/24 06:26:51;;;;;;;56.53;26.30;;;;;;;10.83;100.00;97108.31;6231261;28;20231;-53
2023/10/24 06:29:53;;;;;;;53.13;25.73;;;;;;;10.84;100.00;97102.72;6229017;28;20317;-52
2023/10/24 06:32:56;;;;;;;52.60;25.23;;;;;;;10.81;100.00;97089.13;6231109;28;20322;-53
2023/10/24 06:36:02;;;;;;;27.33;20.80;;;;;;;10.83;100.00;97100.31;6230373;28;20352;-53
2023/10/24 06:39:04;;;;;;;35.43;25.57;;;;;;;10.84;100.00;97097.41;6227829;28;20321;-53
2023/10/24 06:42:07;;;;;;;38.00;26.23;;;;;;;10.85;100.00;97103.53;6225974;28;20220;-52
2023/10/24 06:45:11;;;;;;;42.00;27.77;;;;;;;10.87;100.00;97113.94;6231558;28;20255;-50
2023/10/24 06:48:14;;;;;;;36.07;23.13;;;;;;;10.87;100.00;97111.25;6230083;28;20223;-51
2023/10/24 06:51:16;;;;;;;33.70;22.83;;;;;;;10.91;100.00;97123.03;6230905;28;20247;-53
2023/10/24 06:54:19;;;;;;;50.07;30.97;;;;;;;10.85;100.00;97125.66;6226261;28;20296;-52
2023/10/24 06:57:21;;;;;;;37.27;25.83;;;;;;;10.82;100.00;97123.50;6230221;28;20231;-51
2023/10/24 07:00:24;;;;;;;45.63;28.13;;;;;;;10.80;100.00;97120.28;6228281;28;20236;-51
2023/10/24 07:03:27;;;;;;;39.93;26.93;;;;;;;10.83;100.00;97125.09;6230765;28;20232;-52
2023/10/24 07:06:29;;;;;;;40.70;26.30;;;;;;;10.83;100.00;97137.59;6225723;28;20227;-54
2023/10/24 07:09:32;;;;;;;38.17;24.30;;;;;;;10.81;100.00;97129.09;6230355;28;20305;-54
2023/10/24 07:12:35;;;;;;;52.63;30.33;;;;;;;10.79;100.00;97125.88;6229548;28;20232;-55
2023/10/24 07:15:40;;;;;;;49.70;28.67;;;;;;;10.75;100.00;97128.25;6230713;28;20250;-55
2023/10/24 07:18:43;;;;;;;40.40;25.80;;;;;;;10.78;100.00;97126.91;6228073;28;20334;-56
2023/10/24 07:21:45;;;;;;;38.13;24.73;;;;;;;10.81;100.00;97115.75;6229727;28;20285;-53
2023/10/24 07:24:47;;;;;;;41.53;27.07;;;;;;;10.82;100.00;97104.84;6230538;28;20247;-54
2023/10/24 07:32:10;;;;;;;31.60;21.10;;;;;;;10.88;100.00;97100.34;6244626;28;20232;-57
2023/10/24 07:35:12;;;;;;;30.77;21.07;;;;;;;10.77;100.00;97094.16;6230312;28;20721;-57
2023/10/24 07:38:14;;;;;;;27.47;20.40;;;;;;;10.84;100.00;97107.25;6229395;28;20246;-57
2023/10/24 07:41:17;;;;;;;23.50;18.67;;;;;;;10.84;100.00;97115.25;6228803;28;20234;-56
2023/10/24 07:44:19;;;;;;;23.67;17.93;;;;;;;10.85;100.00;97108.88;6229922;28;20231;-57
2023/10/24 07:47:21;;;;;;;28.27;19.53;;;;;;;10.87;100.00;97103.25;6229272;28;20226;-56
2023/10/24 07:50:24;;;;;;;25.27;21.73;;;;;;;10.83;100.00;97084.31;6228861;28;20457;-56
2023/10/24 07:53:26;;;;;;;23.20;18.03;;;;;;;10.91;100.00;97086.50;6228575;28;20737;-54
2023/10/24 07:56:28;;;;;;;19.63;16.37;;;;;;;10.92;100.00;97092.63;6228604;28;20395;-54
2023/10/24 07:59:31;;;;;;;28.00;19.93;;;;;;;10.83;100.00;97093.13;6229560;28;20223;-55
2023/10/24 08:02:33;;;;;;;25.40;18.67;;;;;;;10.76;100.00;97083.75;6228658;28;20258;-55
2023/10/24 08:05:36;;;;;;;18.60;16.00;;;;;;;10.78;100.00;97077.09;6229589;28;20239;-56
2023/10/24 08:08:43;;;;;;;22.93;16.63;;;;;;;10.82;100.00;97064.06;6232569;28;20292;-55
2023/10/24 08:11:45;;;;;;;19.57;15.53;;;;;;;10.85;100.00;97048.38;6227317;28;20247;-55
2023/10/24 08:14:47;;;;;;;20.87;17.70;;;;;;;10.85;100.00;97056.38;6229056;28;20231;-53
2023/10/24 08:17:51;;;;;;;23.23;19.00;;;;;;;10.92;100.00;97050.81;6228179;28;20722;-55
2023/10/24 08:20:55;;;;;;;21.27;17.97;;;;;;;10.88;100.00;97046.25;6228771;28;20230;-54
2023/10/24 08:23:57;;;;;;;24.53;19.00;;;;;;;10.89;100.00;97051.34;6229145;28;20581;-55
2023/10/24 08:26:59;;;;;;;27.50;20.20;;;;;;;10.89;100.00;97056.66;6228923;28;20588;-56
2023/10/24 08:30:12;;;;;;;25.30;17.53;;;;;;;10.87;100.00;97056.09;6228929;28;20589;-55
2023/10/24 08:33:16;;;;;;;23.53;18.90;;;;;;;10.85;100.00;97056.38;6227238;28;20261;-55
2023/10/24 08:36:20;;;;;;;18.43;16.13;;;;;;;10.86;100.00;97065.16;6227727;28;20227;-53
2023/10/24 08:39:23;;;;;;;18.17;15.43;;;;;;;10.88;100.00;97059.56;6227802;28;20231;-53
2023/10/24 08:42:26;;;;;;;22.03;17.17;;;;;;;10.90;100.00;97052.94;6226475;28;20235;-54
2023/10/24 08:45:30;;;;;;;17.30;15.17;;;;;;;10.92;100.00;97050.00;6226651;28;20227;-50
2023/10/24 08:48:36;;;;;;;21.50;16.83;;;;;;;10.90;100.00;97044.13;6228293;28;20238;-55
2023/10/24 08:51:38;;;;;;;19.53;16.93;;;;;;;10.90;100.00;97039.63;6229004;28;20288;-54
2023/10/24 08:54:40;;;;;;;19.43;16.00;;;;;;;10.85;100.00;97040.38;6227411;28;20240;-54
2023/10/24 08:57:47;;;;;;;21.47;15.83;;;;;;;10.85;100.00;97064.38;6226841;28;20602;-53
2023/10/24 09:00:50;;;;;;;17.17;14.53;;;;;;;10.89;100.00;97045.22;6227427;28;20242;-53
2023/10/24 09:03:53;;;;;;;24.23;17.33;;;;;;;10.88;100.00;97033.72;6227246;28;20235;-54
2023/10/24 09:06:55;;;;;;;21.30;16.33;;;;;;;10.87;100.00;97041.97;6226696;28;20231;-53
2023/10/24 09:09:57;;;;;;;19.10;15.83;;;;;;;10.84;100.00;97038.00;6225453;28;20277;-54
2023/10/24 09:13:03;;;;;;;15.40;13.80;;;;;;;10.89;100.00;97027.34;6227835;28;20267;-56
2023/10/24 09:16:11;;;;;;;17.23;15.43;;;;;;;10.93;100.00;97031.06;6226039;28;20322;-52
2023/10/24 09:19:15;;;;;;;22.53;16.73;;;;;;;10.93;100.00;97020.41;6236332;28;20231;-52
2023/10/24 09:22:20;;;;;;;16.73;13.73;;;;;;;10.99;100.00;97007.94;6228199;28;20253;-53
2023/10/24 09:25:23;;;;;;;19.37;15.53;;;;;;;10.95;100.00;96983.66;6226447;28;20723;-54
2023/10/24 09:28:25;;;;;;;19.87;15.80;;;;;;;11.04;100.00;96990.09;6228583;28;20235;-55
2023/10/24 09:31:27;;;;;;;15.60;13.83;;;;;;;11.13;100.00;96993.03;6227536;28;20238;-55
2023/10/24 09:34:31;;;;;;;17.30;14.80;;;;;;;11.20;100.00;96982.94;6228348;28;20236;-55
2023/10/24 09:37:39;;;;;;;15.07;13.10;;;;;;;11.16;100.00;96960.53;6227556;28;20281;-54
2023/10/24 09:40:41;;;;;;;17.33;12.93;;;;;;;11.32;100.00;96969.38;6223846;28;20243;-56
2023/10/24 09:43:48;;;;;;;13.43;11.97;;;;;;;11.45;100.00;96979.53;6226859;28;20695;-54
2023/10/24 09:46:53;;;;;;;12.27;10.80;;;;;;;11.50;100.00;96979.53;6231316;28;20361;-55
2023/10/24 09:49:59;;;;;;;18.20;13.73;;;;;;;11.67;100.00;97002.50;6246848;28;20235;-55
2023/10/24 09:53:03;;;;;;;13.33;11.63;;;;;;;11.67;100.00;97000.63;6231497;28;20254;-55
2023/10/24 09:56:06;;;;;;;17.47;11.97;;;;;;;11.70;100.00;97012.66;6232011;28;20589;-56
2023/10/24 09:59:10;;;;;;;16.53;12.27;;;;;;;11.72;100.00;97005.97;6230755;28;20310;-52
2023/10/24 10:02:14;;;;;;;15.90;11.10;;;;;;;11.70;100.00;97024.13;6231467;28;20235;-56
2023/10/24 10:05:16;;;;;;;13.80;9.60;;;;;;;11.73;100.00;97017.47;6232212;28;20216;-50
2023/10/24 10:08:24;;;;;;;15.93;10.73;;;;;;;11.88;100.00;97012.16;6228859;28;20242;-55
2023/10/24 10:11:32;;;;;;;13.80;10.17;;;;;;;11.92;100.00;96999.06;6227863;28;20281;-55
2023/10/24 10:14:37;;;;;;;13.70;10.67;;;;;;;11.97;100.00;97004.41;6232630;28;20231;-56
2023/10/24 10:18:00;;;;;;;11.17;9.10;;;;;;;11.96;100.00;97005.47;6230960;28;20232;-56
2023/10/24 10:21:33;;;;;;;13.77;9.30;;;;;;;12.02;100.00;96986.56;6231504;28;20220;-51
2023/10/24 10:25:12;;;;;;;11.23;7.97;;;;;;;12.05;100.00;96982.53;6228142;28;20703;-52
2023/10/24 10:28:30;;;;;;;10.07;8.40;;;;;;;12.00;100.00;96988.66;6231082;28;20305;-53
2023/10/24 10:31:47;;;;;;;11.90;9.07;;;;;;;11.96;100.00;96976.91;6242502;28;20267;-54
2023/10/24 10:35:11;;;;;;;11.43;9.60;;;;;;;11.75;100.00;96959.28;6230488;28;20236;-50
2023/10/24 10:38:44;;;;;;;13.77;9.80;;;;;;;11.76;100.00;96955.53;6230893;28;20231;-54
2023/10/24 10:41:46;;;;;;;12.90;9.73;;;;;;;11.70;100.00;96953.94;6229008;28;20314;-55
2023/10/24 10:44:48;;;;;;;13.43;10.10;;;;;;;11.70;100.00;96937.94;6226639;28;20245;-55
2023/10/24 10:48:04;;;;;;;12.10;9.37;;;;;;;11.73;100.00;96940.88;6231358;28;20228;-53
2023/10/24 10:51:07;;;;;;;12.93;9.13;;;;;;;11.70;100.00;96959.28;6226446;28;20224;-54
2023/10/24 10:54:32;;;;;;;11.33;8.17;;;;;;;11.80;100.00;96960.09;6230497;28;20224;-51
2023/10/24 10:57:49;;;;;;;10.67;8.67;;;;;;;11.79;100.00;96963.03;6200657;28;20598;-50
2023/10/24 11:00:54;;;;;;;12.60;8.43;;;;;;;11.84;100.00;96944.38;6229695;28;20693;-52
2023/10/24 11:03:58;;;;;;;12.30;8.93;;;;;;;11.91;100.00;96944.91;6229771;28;20370;-52
2023/10/24 11:07:03;;;;;;;11.90;9.83;;;;;;;11.93;100.00;96952.66;6229380;28;20228;-52
2023/10/24 11:10:13;;;;;;;11.40;9.53;;;;;;;11.91;100.00;96936.88;6227485;28;20626;-52
2023/10/24 11:13:38;;;;;;;12.67;9.97;;;;;;;12.02;100.00;96951.03;6226731;28;20243;-56
2023/10/24 11:16:41;;;;;;;11.60;9.53;;;;;;;11.93;100.00;96918.75;6226128;28;20238;-54
2023/10/24 11:19:46;;;;;;;14.93;9.43;;;;;;;12.11;100.00;96922.72;6230260;28;20234;-54
2023/10/24 11:22:49;;;;;;;11.80;8.87;;;;;;;12.14;100.00;96927.53;6214383;28;20224;-55
2023/10/24 11:25:54;;;;;;;10.90;8.60;;;;;;;12.18;100.00;96919.78;6230172;28;20659;-53
2023/10/24 11:28:57;;;;;;;13.73;9.90;;;;;;;12.10;100.00;96892.56;6225984;28;20232;-54
2023/10/24 11:31:59;;;;;;;11.80;8.60;;;;;;;12.07;100.00;96887.75;6230032;28;20601;-54
2023/10/24 11:35:05;;;;;;;10.10;8.17;;;;;;;12.03;100.00;96897.38;6226635;28;20370;-54
2023/10/24 11:38:08;;;;;;;11.40;7.70;;;;;;;11.98;100.00;96878.72;6229842;28;20675;-55
2023/10/24 11:41:11;;;;;;;8.83;7.80;;;;;;;11.94;100.00;96858.97;6229395;28;20228;-54
2023/10/24 11:44:14;;;;;;;10.47;7.70;;;;;;;11.90;100.00;96851.75;6228944;28;20317;-53
2023/10/24 11:47:16;;;;;;;10.57;7.40;;;;;;;11.87;100.00;96832.56;6229837;28;20613;-55
2023/10/24 11:50:35;;;;;;;8.50;6.90;;;;;;;11.89;100.00;96850.97;6229345;28;20293;-54
2023/10/24 11:53:38;;;;;;;10.50;7.70;;;;;;;11.80;100.00;96847.22;6225974;28;20228;-52
2023/10/24 11:56:40;;;;;;;9.53;8.07;;;;;;;11.80;100.00;96841.88;6229045;28;20614;-52
2023/10/24 11:59:43;;;;;;;9.43;7.80;;;;;;;11.79;100.00;96861.63;6227718;28;20261;-54
2023/10/24 12:02:45;;;;;;;9.43;7.03;;;;;;;11.75;100.00;96871.22;6228487;28;20231;-53
2023/10/24 12:05:52;;;;;;;13.60;7.97;;;;;;;11.75;100.00;96876.56;6224498;28;20659;-51
2023/10/24 12:08:55;;;;;;;10.27;7.30;;;;;;;11.75;100.00;96881.91;6227866;28;20323;-54
2023/10/24 12:11:57;;;;;;;8.97;6.60;;;;;;;11.77;100.00;96880.59;6221042;28;20236;-55
2023/10/24 12:15:00;;;;;;;8.27;6.10;;;;;;;11.71;100.00;96870.16;6228793;28;20342;-55
2023/10/24 12:18:05;;;;;;;7.50;5.23;;;;;;;11.76;100.00;96872.81;6229876;28;20232;-52
2023/10/24 12:21:09;;;;;;;8.63;6.67;;;;;;;11.70;100.00;96852.56;6234626;28;20220;-55
2023/10/24 12:24:12;;;;;;;7.40;5.93;;;;;;;11.67;100.00;96826.41;6229583;28;20231;-56
2023/10/24 12:27:15;;;;;;;6.63;5.80;;;;;;;11.65;100.00;96820.56;6228910;28;20227;-56
2023/10/24 12:30:19;;;;;;;5.90;4.53;;;;;;;11.70;100.00;96818.69;6228893;28;20231;-54
2023/10/24 12:33:21;;;;;;;5.43;4.60;;;;;;;11.77;100.00;96805.03;6229477;28;20841;-55
2023/10/24 12:36:24;;;;;;;7.23;5.20;;;;;;;11.80;100.00;96785.84;6232592;28;20246;-56
2023/10/24 12:39:26;;;;;;;4.80;4.40;;;;;;;11.81;100.00;96779.44;6228934;28;20235;-56
2023/10/24 12:42:28;;;;;;;5.70;4.97;;;;;;;11.82;100.00;96776.53;6228874;28;20231;-55
2023/10/24 12:45:31;;;;;;;4.80;4.33;;;;;;;11.84;100.00;96768.25;6227134;28;20598;-56
2023/10/24 12:48:33;;;;;;;3.97;3.50;;;;;;;11.87;100.00;96757.84;6227277;28;20242;-55
2023/10/24 12:51:54;;;;;;;7.27;4.63;;;;;;;11.90;100.00;96755.69;6228643;28;20632;-52
2023/10/24 12:54:56;;;;;;;6.63;4.80;;;;;;;11.86;100.00;96756.22;6227428;28;20223;-55
2023/10/24 12:57:59;;;;;;;5.53;4.10;;;;;;;11.76;100.00;96739.41;6226927;28;20758;-53
2023/10/24 13:01:01;;;;;;;7.47;6.30;;;;;;;11.78;100.00;96735.41;6227454;28;20769;-56
2023/10/24 13:04:04;;;;;;;6.53;5.63;;;;;;;11.77;100.00;96725.00;6225713;28;20597;-54
2023/10/24 13:07:06;;;;;;;8.90;6.60;;;;;;;11.75;100.00;96722.59;6227934;28;20235;-55
2023/10/24 13:10:09;;;;;;;7.53;6.57;;;;;;;11.74;100.00;96725.56;6223743;28;20326;-54
2023/10/24 13:13:11;;;;;;;5.43;4.87;;;;;;;11.78;100.00;96721.28;6226094;28;20675;-52
2023/10/24 13:16:13;;;;;;;6.90;5.27;;;;;;;11.81;100.00;96728.72;6227239;28;20812;-54
2023/10/24 13:19:16;;;;;;;3.90;3.60;;;;;;;11.84;100.00;96720.22;6226363;28;20231;-53
2023/10/24 13:22:18;;;;;;;7.10;5.67;;;;;;;11.85;100.00;96700.47;6226584;28;20291;-51
2023/10/24 13:25:21;;;;;;;9.97;6.43;;;;;;;11.84;100.00;96701.53;6224262;28;20374;-53
2023/10/24 13:28:24;;;;;;;7.40;5.30;;;;;;;11.85;100.00;96695.13;6229528;28;20236;-53
2023/10/24 13:31:26;;;;;;;7.53;6.33;;;;;;;11.83;100.00;96676.72;6230450;28;20350;-51
2023/10/24 13:34:30;;;;;;;6.20;5.60;;;;;;;11.83;100.00;96675.94;6225746;28;20235;-52
2023/10/24 13:37:35;;;;;;;8.33;6.20;;;;;;;11.83;100.00;96675.94;6226320;28;20231;-51
2023/10/24 13:40:37;;;;;;;6.07;5.47;;;;;;;11.82;100.00;96671.63;6221727;28;20224;-55
2023/10/24 13:43:41;;;;;;;6.70;5.80;;;;;;;11.76;100.00;96670.84;6224207;28;20244;-54
2023/10/24 13:46:43;;;;;;;6.27;4.90;;;;;;;11.72;100.00;96664.44;6227066;28;20322;-53
2023/10/24 13:49:46;;;;;;;4.83;4.33;;;;;;;11.65;100.00;96631.16;6225921;28;20239;-54
2023/10/24 13:52:48;;;;;;;5.17;4.67;;;;;;;11.72;100.00;96618.28;6226660;28;20726;-53
2023/10/24 13:55:50;;;;;;;6.00;5.23;;;;;;;11.73;100.00;96617.25;6223705;28;20323;-53
2023/10/24 13:58:53;;;;;;;6.83;6.10;;;;;;;11.73;100.00;96610.03;6224143;28;20236;-54
2023/10/24 14:01:55;;;;;;;6.93;5.97;;;;;;;11.71;100.00;96600.69;6226354;28;20571;-53
2023/10/24 14:04:57;;;;;;;7.83;6.53;;;;;;;11.73;100.00;96606.56;6226025;28;20231;-54
2023/10/24 14:08:00;;;;;;;9.53;6.30;;;;;;;11.69;100.00;96611.66;6225133;28;20374;-51